sensor_id;sensor_type;location;lat;lon;timestamp;pressure;altitude;pressure_sealevel;temperature;humidity
8320;BME280;4197;42.130;24.746;2023-05-12T00:00:19;99996.34;;;10.14;100.00
8320;BME280;4197;42.130;24.746;2023-05-12T00:02:47;99999.19;;;10.18;100.00
8320;BME280;4197;42.130;24.746;2023-05-12T00:05:16;100000.41;;;10.20;100.00
8320;BME280;4197;42.130;24.746;2023-05-12T00:07:44;99999.50;;;10.16;100.00
8320;BME280;4197;42.130;24.746;2023-05-12T00:10:14;99994.53;;;10.18;100.00
8320;BME280;4197;42.130;24.746;2023-05-12T00:12:42;99995.78;;;10.21;100.00
8320;BME280;4197;42.130;24.746;2023-05-12T00:15:11;100000.22;;;10.25;100.00
8320;BME280;4197;42.130;24.746;2023-05-12T00:17:39;100002.09;;;10.13;100.00
8320;BME280;4197;42.130;24.746;2023-05-12T00:20:08;100003.81;;;10.17;100.00
8320;BME280;4197;42.130;24.746;2023-05-12T00:22:38;100001.78;;;10.14;100.00
8320;BME280;4197;42.130;24.746;2023-05-12T00:25:08;99999.72;;;10.11;100.00
8320;BME280;4197;42.130;24.746;2023-05-12T00:27:38;99999.16;;;10.05;100.00
8320;BME280;4197;42.130;24.746;2023-05-12T00:30:07;99997.34;;;10.10;100.00
8320;BME280;4197;42.130;24.746;2023-05-12T00:32:36;99997.25;;;10.06;100.00
8320;BME280;4197;42.130;24.746;2023-05-12T00:35:04;99995.44;;;10.10;100.00
8320;BME280;4197;42.130;24.746;2023-05-12T00:37:33;99995.19;;;10.03;100.00
8320;BME280;4197;42.130;24.746;2023-05-12T00:40:01;99994.06;;;10.04;100.00
8320;BME280;4197;42.130;24.746;2023-05-12T00:42:32;99996.09;;;10.07;100.00
8320;BME280;4197;42.130;24.746;2023-05-12T00:45:03;100009.09;;;10.14;100.00
8320;BME280;4197;42.130;24.746;2023-05-12T00:47:31;100001.63;;;10.11;100.00
8320;BME280;4197;42.130;24.746;2023-05-12T00:50:01;100004.25;;;10.07;100.00
8320;BME280;4197;42.130;24.746;2023-05-12T00:52:29;100005.13;;;9.99;100.00
8320;BME280;4197;42.130;24.746;2023-05-12T00:54:59;100009.19;;;10.05;100.00
8320;BME280;4197;42.130;24.746;2023-05-12T00:57:27;100005.38;;;10.06;100.00
8320;BME280;4197;42.130;24.746;2023-05-12T00:59:55;100006.69;;;10.00;100.00
8320;BME280;4197;42.130;24.746;2023-05-12T01:02:25;100013.16;;;9.95;100.00
8320;BME280;4197;42.130;24.746;2023-05-12T01:04:53;100016.38;;;9.89;100.00
8320;BME280;4197;42.130;24.746;2023-05-12T01:07:22;100003.66;;;10.01;100.00
8320;BME280;4197;42.130;24.746;2023-05-12T01:09:53;100007.72;;;9.95;100.00
8320;BME280;4197;42.130;24.746;2023-05-12T01:12:22;100009.63;;;9.95;100.00
8320;BME280;4197;42.130;24.746;2023-05-12T01:14:52;100003.66;;;10.01;100.00
8320;BME280;4197;42.130;24.746;2023-05-12T01:17:28;100008.03;;;9.94;100.00
8320;BME280;4197;42.130;24.746;2023-05-12T01:20:01;100011.22;;;9.96;100.00
8320;BME280;4197;42.130;24.746;2023-05-12T01:22:31;100009.63;;;9.95;100.00
8320;BME280;4197;42.130;24.746;2023-05-12T01:25:02;100011.19;;;9.83;100.00
8320;BME280;4197;42.130;24.746;2023-05-12T01:27:33;100015.03;;;9.82;100.00
8320;BME280;4197;42.130;24.746;2023-05-12T01:30:03;100003.03;;;9.83;100.00
8320;BME280;4197;42.130;24.746;2023-05-12T01:32:31;100005.53;;;9.89;100.00
8320;BME280;4197;42.130;24.746;2023-05-12T01:35:00;99998.09;;;9.86;100.00
8320;BME280;4197;42.130;24.746;2023-05-12T01:37:28;100001.59;;;9.86;100.00
8320;BME280;4197;42.130;24.746;2023-05-12T01:39:56;100004.28;;;9.86;100.00
8320;BME280;4197;42.130;24.746;2023-05-12T01:42:24;100004.56;;;9.93;100.00
8320;BME280;4197;42.130;24.746;2023-05-12T01:44:53;100001.00;;;9.80;100.00
8320;BME280;4197;42.130;24.746;2023-05-12T01:47:21;100003.59;;;9.77;100.00
8320;BME280;4197;42.130;24.746;2023-05-12T01:49:50;99999.66;;;9.74;100.00
8320;BME280;4197;42.130;24.746;2023-05-12T01:52:20;100004.94;;;9.71;100.00
8320;BME280;4197;42.130;24.746;2023-05-12T01:54:48;100006.06;;;9.70;100.00
8320;BME280;4197;42.130;24.746;2023-05-12T01:57:17;100001.31;;;9.67;100.00
8320;BME280;4197;42.130;24.746;2023-05-12T02:00:05;99999.66;;;9.74;100.00
8320;BME280;4197;42.130;24.746;2023-05-12T02:02:34;100000.31;;;9.71;100.00
8320;BME280;4197;42.130;24.746;2023-05-12T02:05:02;99998.50;;;9.63;100.00
8320;BME280;4197;42.130;24.746;2023-05-12T02:07:31;100000.41;;;9.63;100.00
8320;BME280;4197;42.130;24.746;2023-05-12T02:09:59;100003.44;;;9.61;100.00
8320;BME280;4197;42.130;24.746;2023-05-12T02:12:27;100000.53;;;9.66;100.00
8320;BME280;4197;42.130;24.746;2023-05-12T02:14:55;100000.22;;;9.68;100.00
8320;BME280;4197;42.130;24.746;2023-05-12T02:17:24;99998.97;;;9.65;100.00
8320;BME280;4197;42.130;24.746;2023-05-12T02:19:54;99997.50;;;9.68;100.00
8320;BME280;4197;42.130;24.746;2023-05-12T02:22:22;99998.50;;;9.75;100.00
8320;BME280;4197;42.130;24.746;2023-05-12T02:24:50;99995.47;;;9.77;100.00
8320;BME280;4197;42.130;24.746;2023-05-12T02:27:18;99993.19;;;9.67;100.00
8320;BME280;4197;42.130;24.746;2023-05-12T02:29:46;99997.25;;;9.60;100.00
8320;BME280;4197;42.130;24.746;2023-05-12T02:32:14;99987.84;;;9.46;100.00
8320;BME280;4197;42.130;24.746;2023-05-12T02:34:44;99995.81;;;9.42;100.00
8320;BME280;4197;42.130;24.746;2023-05-12T02:37:12;99998.50;;;9.42;100.00
8320;BME280;4197;42.130;24.746;2023-05-12T02:39:41;99994.44;;;9.36;100.00
8320;BME280;4197;42.130;24.746;2023-05-12T02:42:09;99986.13;;;9.41;100.00
8320;BME280;4197;42.130;24.746;2023-05-12T02:44:37;99990.34;;;9.30;100.00
8320;BME280;4197;42.130;24.746;2023-05-12T02:47:05;99990.63;;;9.16;100.00
8320;BME280;4197;42.130;24.746;2023-05-12T02:49:33;100000.19;;;9.13;100.00
8320;BME280;4197;42.130;24.746;2023-05-12T02:52:04;99992.16;;;9.26;100.00
8320;BME280;4197;42.130;24.746;2023-05-12T02:54:32;99993.66;;;9.35;100.00
8320;BME280;4197;42.130;24.746;2023-05-12T02:57:03;99995.59;;;9.47;100.00
8320;BME280;4197;42.130;24.746;2023-05-12T02:59:32;99998.31;;;9.47;100.00
8320;BME280;4197;42.130;24.746;2023-05-12T03:02:00;100004.53;;;9.48;100.00
8320;BME280;4197;42.130;24.746;2023-05-12T03:04:28;100004.66;;;9.51;100.00
8320;BME280;4197;42.130;24.746;2023-05-12T03:06:57;100004.09;;;9.58;100.00
8320;BME280;4197;42.130;24.746;2023-05-12T03:09:26;100012.81;;;9.64;100.00
8320;BME280;4197;42.130;24.746;2023-05-12T03:11:55;100016.31;;;9.64;100.00
8320;BME280;4197;42.130;24.746;2023-05-12T03:14:24;100013.28;;;9.66;100.00
8320;BME280;4197;42.130;24.746;2023-05-12T03:16:54;100016.31;;;9.64;100.00
8320;BME280;4197;42.130;24.746;2023-05-12T03:19:23;100018.59;;;9.62;100.00
8320;BME280;4197;42.130;24.746;2023-05-12T03:21:52;100024.91;;;9.66;100.00
8320;BME280;4197;42.130;24.746;2023-05-12T03:24:21;100025.88;;;9.61;100.00
8320;BME280;4197;42.130;24.746;2023-05-12T03:26:51;100019.75;;;9.73;100.00
8320;BME280;4197;42.130;24.746;2023-05-12T03:29:21;100020.06;;;9.72;100.00
8320;BME280;4197;42.130;24.746;2023-05-12T03:31:50;100028.31;;;9.75;100.00
8320;BME280;4197;42.130;24.746;2023-05-12T03:34:18;100031.34;;;9.74;100.00
8320;BME280;4197;42.130;24.746;2023-05-12T03:36:47;100026.94;;;9.69;100.00
8320;BME280;4197;42.130;24.746;2023-05-12T03:39:15;100034.34;;;9.60;100.00
8320;BME280;4197;42.130;24.746;2023-05-12T03:41:44;100031.34;;;9.41;100.00
8320;BME280;4197;42.130;24.746;2023-05-12T03:44:14;100033.78;;;9.33;100.00
8320;BME280;4197;42.130;24.746;2023-05-12T03:46:42;100038.13;;;9.47;100.00
8320;BME280;4197;42.130;24.746;2023-05-12T03:49:10;100045.78;;;9.45;100.00
8320;BME280;4197;42.130;24.746;2023-05-12T03:51:39;100043.03;;;9.53;100.00
8320;BME280;4197;42.130;24.746;2023-05-12T03:54:07;100048.88;;;9.55;100.00
8320;BME280;4197;42.130;24.746;2023-05-12T03:56:35;100041.19;;;9.45;100.00
8320;BME280;4197;42.130;24.746;2023-05-12T03:59:03;100055.75;;;9.53;100.00
8320;BME280;4197;42.130;24.746;2023-05-12T04:01:34;100050.69;;;9.51;100.00
8320;BME280;4197;42.130;24.746;2023-05-12T04:04:02;100056.38;;;9.37;100.00
8320;BME280;4197;42.130;24.746;2023-05-12T04:06:31;100054.53;;;9.29;100.00
8320;BME280;4197;42.130;24.746;2023-05-12T04:08:59;100058.41;;;9.41;100.00
8320;BME280;4197;42.130;24.746;2023-05-12T04:11:27;100060.06;;;9.54;100.00
8320;BME280;4197;42.130;24.746;2023-05-12T04:13:55;100049.94;;;9.63;100.00
8320;BME280;4197;42.130;24.746;2023-05-12T04:16:23;100055.22;;;9.59;100.00
8320;BME280;4197;42.130;24.746;2023-05-12T04:18:53;100056.28;;;9.67;100.00
8320;BME280;4197;42.130;24.746;2023-05-12T04:21:23;100054.47;;;9.71;100.00
8320;BME280;4197;42.130;24.746;2023-05-12T04:23:52;100056.78;;;9.81;100.00
8320;BME280;4197;42.130;24.746;2023-05-12T04:26:20;100050.03;;;9.88;100.00
8320;BME280;4197;42.130;24.746;2023-05-12T04:28:48;100054.16;;;10.06;100.00
8320;BME280;4197;42.130;24.746;2023-05-12T04:31:17;100045.72;;;10.20;100.00
8320;BME280;4197;42.130;24.746;2023-05-12T04:33:45;100050.09;;;10.24;100.00
8320;BME280;4197;42.130;24.746;2023-05-12T04:36:15;100046.03;;;10.18;100.00
8320;BME280;4197;42.130;24.746;2023-05-12T04:38:43;100042.25;;;10.44;100.00
8320;BME280;4197;42.130;24.746;2023-05-12T04:41:12;100044.50;;;10.42;100.00
8320;BME280;4197;42.130;24.746;2023-05-12T04:43:41;100040.78;;;10.34;100.00
8320;BME280;4197;42.130;24.746;2023-05-12T04:46:12;100045.75;;;10.57;100.00
8320;BME280;4197;42.130;24.746;2023-05-12T04:48:40;100043.81;;;10.69;100.00
8320;BME280;4197;42.130;24.746;2023-05-12T04:51:09;100040.00;;;10.70;100.00
8320;BME280;4197;42.130;24.746;2023-05-12T04:53:39;100043.47;;;10.83;100.00
8320;BME280;4197;42.130;24.746;2023-05-12T04:56:07;100047.56;;;10.89;100.00
8320;BME280;4197;42.130;24.746;2023-05-12T04:58:36;100043.84;;;10.82;100.00
8320;BME280;4197;42.130;24.746;2023-05-12T05:01:05;100055.16;;;10.84;100.00
8320;BME280;4197;42.130;24.746;2023-05-12T05:03:34;100052.31;;;10.92;100.00
8320;BME280;4197;42.130;24.746;2023-05-12T05:06:03;100051.84;;;10.90;100.00
8320;BME280;4197;42.130;24.746;2023-05-12T05:08:31;100060.78;;;11.03;100.00
8320;BME280;4197;42.130;24.746;2023-05-12T05:11:01;100061.19;;;11.05;100.00
8320;BME280;4197;42.130;24.746;2023-05-12T05:13:30;100058.47;;;11.18;100.00
8320;BME280;4197;42.130;24.746;2023-05-12T05:15:58;100047.91;;;11.00;100.00
8320;BME280;4197;42.130;24.746;2023-05-12T05:18:26;100052.19;;;10.77;100.00
8320;BME280;4197;42.130;24.746;2023-05-12T05:20:56;100060.22;;;10.73;100.00
8320;BME280;4197;42.130;24.746;2023-05-12T05:23:25;100057.38;;;10.33;100.00
8320;BME280;4197;42.130;24.746;2023-05-12T05:25:53;100053.09;;;10.44;100.00
8320;BME280;4197;42.130;24.746;2023-05-12T05:28:23;100059.88;;;10.62;100.00
8320;BME280;4197;42.130;24.746;2023-05-12T05:30:52;100062.94;;;10.73;100.00
8320;BME280;4197;42.130;24.746;2023-05-12T05:33:21;100067.91;;;10.96;100.00
8320;BME280;4197;42.130;24.746;2023-05-12T05:35:50;100062.38;;;10.80;100.00
8320;BME280;4197;42.130;24.746;2023-05-12T05:38:18;100065.31;;;10.87;100.00
8320;BME280;4197;42.130;24.746;2023-05-12T05:40:47;100062.53;;;11.24;100.00
8320;BME280;4197;42.130;24.746;2023-05-12T05:43:20;100065.72;;;11.54;100.00
8320;BME280;4197;42.130;24.746;2023-05-12T05:45:50;100062.53;;;11.64;100.00
8320;BME280;4197;42.130;24.746;2023-05-12T05:48:18;100061.56;;;11.44;100.00
8320;BME280;4197;42.130;24.746;2023-05-12T05:50:47;100056.44;;;11.55;100.00
8320;BME280;4197;42.130;24.746;2023-05-12T05:53:17;100056.88;;;11.85;100.00
8320;BME280;4197;42.130;24.746;2023-05-12T05:55:46;100053.72;;;12.27;98.71
8320;BME280;4197;42.130;24.746;2023-05-12T05:58:15;100048.81;;;12.48;96.51
8320;BME280;4197;42.130;24.746;2023-05-12T06:00:44;100056.59;;;12.66;93.91
8320;BME280;4197;42.130;24.746;2023-05-12T06:03:14;100053.03;;;12.62;91.76
8320;BME280;4197;42.130;24.746;2023-05-12T06:05:43;100059.31;;;12.66;90.62
8320;BME280;4197;42.130;24.746;2023-05-12T06:08:12;100072.06;;;12.78;88.79
8320;BME280;4197;42.130;24.746;2023-05-12T06:10:41;100073.97;;;12.77;88.80
8320;BME280;4197;42.130;24.746;2023-05-12T06:13:09;100072.47;;;12.95;88.19
8320;BME280;4197;42.130;24.746;2023-05-12T06:15:37;100083.66;;;13.10;86.00
8320;BME280;4197;42.130;24.746;2023-05-12T06:18:06;100082.66;;;13.34;84.77
8320;BME280;4197;42.130;24.746;2023-05-12T06:20:36;100072.69;;;13.06;85.19
8320;BME280;4197;42.130;24.746;2023-05-12T06:23:04;100081.72;;;13.10;84.10
8320;BME280;4197;42.130;24.746;2023-05-12T06:25:32;100074.16;;;12.84;86.36
8320;BME280;4197;42.130;24.746;2023-05-12T06:28:01;100086.09;;;12.80;89.17
8320;BME280;4197;42.130;24.746;2023-05-12T06:30:30;100086.13;;;13.15;86.46
8320;BME280;4197;42.130;24.746;2023-05-12T06:33:00;100079.53;;;13.16;86.70
8320;BME280;4197;42.130;24.746;2023-05-12T06:35:29;100083.59;;;13.06;87.08
8320;BME280;4197;42.130;24.746;2023-05-12T06:37:59;100077.13;;;12.95;86.03
8320;BME280;4197;42.130;24.746;2023-05-12T06:40:30;100074.88;;;12.81;87.68
8320;BME280;4197;42.130;24.746;2023-05-12T06:42:59;100079.81;;;13.11;89.72
8320;BME280;4197;42.130;24.746;2023-05-12T06:45:28;100077.78;;;13.43;85.04
8320;BME280;4197;42.130;24.746;2023-05-12T06:47:57;100074.25;;;14.01;82.44
8320;BME280;4197;42.130;24.746;2023-05-12T06:50:26;100079.63;;;14.17;79.98
8320;BME280;4197;42.130;24.746;2023-05-12T06:52:55;100075.50;;;14.49;79.07
8320;BME280;4197;42.130;24.746;2023-05-12T06:55:25;100083.09;;;14.83;77.10
8320;BME280;4197;42.130;24.746;2023-05-12T06:57:54;100072.91;;;14.34;77.64
8320;BME280;4197;42.130;24.746;2023-05-12T07:00:24;100078.22;;;14.26;75.28
8320;BME280;4197;42.130;24.746;2023-05-12T07:02:53;100075.00;;;13.78;79.48
8320;BME280;4197;42.130;24.746;2023-05-12T07:05:21;100071.28;;;13.87;77.60
8320;BME280;4197;42.130;24.746;2023-05-12T07:07:50;100066.97;;;13.86;77.58
8320;BME280;4197;42.130;24.746;2023-05-12T07:10:18;100071.63;;;13.85;76.81
8320;BME280;4197;42.130;24.746;2023-05-12T07:12:49;100073.06;;;13.79;75.13
8320;BME280;4197;42.130;24.746;2023-05-12T07:15:18;100074.28;;;13.62;77.73
8320;BME280;4197;42.130;24.746;2023-05-12T07:17:47;100069.09;;;13.96;78.03
8320;BME280;4197;42.130;24.746;2023-05-12T07:20:16;100075.81;;;14.67;73.26
8320;BME280;4197;42.130;24.746;2023-05-12T07:22:45;100072.53;;;15.08;71.53
8320;BME280;4197;42.130;24.746;2023-05-12T07:25:14;100072.19;;;15.43;69.46
8320;BME280;4197;42.130;24.746;2023-05-12T07:27:44;100076.13;;;15.15;68.31
8320;BME280;4197;42.130;24.746;2023-05-12T07:30:14;100078.28;;;14.76;70.15
8320;BME280;4197;42.130;24.746;2023-05-12T07:32:42;100081.31;;;14.71;69.63
8320;BME280;4197;42.130;24.746;2023-05-12T07:35:10;100084.34;;;14.43;70.68
8320;BME280;4197;42.130;24.746;2023-05-12T07:37:39;100079.66;;;14.43;70.49
8320;BME280;4197;42.130;24.746;2023-05-12T07:40:08;100077.22;;;14.58;67.16
8320;BME280;4197;42.130;24.746;2023-05-12T07:42:37;100076.34;;;15.03;65.05
8320;BME280;4197;42.130;24.746;2023-05-12T07:45:07;100076.22;;;15.23;64.04
8320;BME280;4197;42.130;24.746;2023-05-12T07:47:36;100077.19;;;15.07;64.20
8320;BME280;4197;42.130;24.746;2023-05-12T07:50:05;100074.03;;;15.05;65.20
8320;BME280;4197;42.130;24.746;2023-05-12T07:52:34;100068.03;;;15.23;63.92
8320;BME280;4197;42.130;24.746;2023-05-12T07:55:02;100055.84;;;15.77;62.86
8320;BME280;4197;42.130;24.746;2023-05-12T07:57:31;100069.41;;;15.39;58.85
8320;BME280;4197;42.130;24.746;2023-05-12T08:00:00;100065.00;;;15.61;61.42
8320;BME280;4197;42.130;24.746;2023-05-12T08:02:28;100074.16;;;15.73;56.94
8320;BME280;4197;42.130;24.746;2023-05-12T08:04:58;100065.53;;;15.40;59.08
8320;BME280;4197;42.130;24.746;2023-05-12T08:07:26;100060.75;;;15.34;56.80
8320;BME280;4197;42.130;24.746;2023-05-12T08:09:54;100066.66;;;15.36;57.09
8320;BME280;4197;42.130;24.746;2023-05-12T08:12:22;100066.59;;;15.02;59.25
8320;BME280;4197;42.130;24.746;2023-05-12T08:14:51;100078.97;;;14.96;60.69
8320;BME280;4197;42.130;24.746;2023-05-12T08:17:19;100074.56;;;14.61;63.12
8320;BME280;4197;42.130;24.746;2023-05-12T08:19:47;100076.53;;;14.64;63.99
8320;BME280;4197;42.130;24.746;2023-05-12T08:22:16;100068.22;;;14.34;66.25
8320;BME280;4197;42.130;24.746;2023-05-12T08:24:45;100072.94;;;14.83;66.13
8320;BME280;4197;42.130;24.746;2023-05-12T08:27:13;100073.38;;;15.15;62.07
8320;BME280;4197;42.130;24.746;2023-05-12T08:29:41;100077.59;;;14.56;61.21
8320;BME280;4197;42.130;24.746;2023-05-12T08:32:10;100068.19;;;14.54;63.18
8320;BME280;4197;42.130;24.746;2023-05-12T08:34:38;100070.34;;;14.67;61.78
8320;BME280;4197;42.130;24.746;2023-05-12T08:37:06;100072.28;;;14.44;63.48
8320;BME280;4197;42.130;24.746;2023-05-12T08:39:37;100070.84;;;14.50;64.06
8320;BME280;4197;42.130;24.746;2023-05-12T08:42:13;100065.00;;;14.75;62.88
8320;BME280;4197;42.130;24.746;2023-05-12T08:44:46;100065.06;;;15.35;61.04
8320;BME280;4197;42.130;24.746;2023-05-12T08:47:17;100060.28;;;15.92;58.20
8320;BME280;4197;42.130;24.746;2023-05-12T08:49:54;100062.25;;;16.33;57.91
8320;BME280;4197;42.130;24.746;2023-05-12T08:52:26;100057.16;;;16.79;56.17
8320;BME280;4197;42.130;24.746;2023-05-12T08:54:56;100063.13;;;16.92;53.53
8320;BME280;4197;42.130;24.746;2023-05-12T08:57:26;100069.94;;;17.16;53.36
8320;BME280;4197;42.130;24.746;2023-05-12T08:59:56;100064.47;;;17.20;52.95
8320;BME280;4197;42.130;24.746;2023-05-12T09:02:27;100069.16;;;16.64;53.56
8320;BME280;4197;42.130;24.746;2023-05-12T09:05:10;100063.03;;;16.81;51.42
8320;BME280;4197;42.130;24.746;2023-05-12T09:07:42;100060.38;;;16.95;51.32
8320;BME280;4197;42.130;24.746;2023-05-12T09:10:14;100045.28;;;16.61;50.01
8320;BME280;4197;42.130;24.746;2023-05-12T09:13:02;100054.34;;;16.72;49.98
8320;BME280;4197;42.130;24.746;2023-05-12T09:15:34;100049.06;;;17.01;49.73
8320;BME280;4197;42.130;24.746;2023-05-12T09:18:03;100051.09;;;17.07;49.69
8320;BME280;4197;42.130;24.746;2023-05-12T09:20:34;100050.00;;;16.64;51.44
8320;BME280;4197;42.130;24.746;2023-05-12T09:23:19;100042.91;;;15.74;54.25
8320;BME280;4197;42.130;24.746;2023-05-12T09:25:58;100058.78;;;15.65;54.94
8320;BME280;4197;42.130;24.746;2023-05-12T09:28:35;100052.69;;;15.45;56.59
8320;BME280;4197;42.130;24.746;2023-05-12T09:31:15;100051.63;;;15.53;56.46
8320;BME280;4197;42.130;24.746;2023-05-12T09:33:43;100046.50;;;16.19;53.87
8320;BME280;4197;42.130;24.746;2023-05-12T09:36:16;100048.84;;;16.20;51.80
8320;BME280;4197;42.130;24.746;2023-05-12T09:38:44;100048.38;;;16.59;50.06
8320;BME280;4197;42.130;24.746;2023-05-12T09:41:21;100041.38;;;16.17;51.32
8320;BME280;4197;42.130;24.746;2023-05-12T09:43:51;100029.03;;;16.82;50.37
8320;BME280;4197;42.130;24.746;2023-05-12T09:46:19;100032.22;;;16.91;50.52
8320;BME280;4197;42.130;24.746;2023-05-12T09:48:47;100032.81;;;17.33;49.13
8320;BME280;4197;42.130;24.746;2023-05-12T09:51:16;100034.31;;;17.23;48.39
8320;BME280;4197;42.130;24.746;2023-05-12T09:53:45;100032.44;;;17.42;50.06
8320;BME280;4197;42.130;24.746;2023-05-12T09:56:15;100042.09;;;17.10;49.21
8320;BME280;4197;42.130;24.746;2023-05-12T09:58:45;100033.06;;;16.51;52.03
8320;BME280;4197;42.130;24.746;2023-05-12T10:01:15;100031.09;;;16.48;52.63
8320;BME280;4197;42.130;24.746;2023-05-12T10:03:50;100023.81;;;16.70;52.07
8320;BME280;4197;42.130;24.746;2023-05-12T10:06:23;100029.69;;;16.72;51.55
8320;BME280;4197;42.130;24.746;2023-05-12T10:08:59;100028.84;;;16.61;51.01
8320;BME280;4197;42.130;24.746;2023-05-12T10:11:31;100030.84;;;16.16;50.62
8320;BME280;4197;42.130;24.746;2023-05-12T10:13:59;100033.41;;;16.01;50.76
8320;BME280;4197;42.130;24.746;2023-05-12T10:16:28;100029.38;;;16.29;50.27
8320;BME280;4197;42.130;24.746;2023-05-12T10:18:57;100027.69;;;16.65;49.61
8320;BME280;4197;42.130;24.746;2023-05-12T10:21:26;100024.41;;;16.93;49.67
8320;BME280;4197;42.130;24.746;2023-05-12T10:23:54;100018.38;;;17.43;48.36
8320;BME280;4197;42.130;24.746;2023-05-12T10:26:23;100022.31;;;17.49;47.89
8320;BME280;4197;42.130;24.746;2023-05-12T10:28:53;100022.34;;;16.80;48.21
8320;BME280;4197;42.130;24.746;2023-05-12T10:31:22;100022.09;;;16.47;50.38
8320;BME280;4197;42.130;24.746;2023-05-12T10:33:55;100023.94;;;16.84;49.82
8320;BME280;4197;42.130;24.746;2023-05-12T10:36:25;100027.69;;;17.28;49.18
8320;BME280;4197;42.130;24.746;2023-05-12T10:38:53;100016.50;;;16.85;48.10
8320;BME280;4197;42.130;24.746;2023-05-12T10:41:29;100017.72;;;16.39;48.69
8320;BME280;4197;42.130;24.746;2023-05-12T10:43:59;100018.50;;;16.36;49.32
8320;BME280;4197;42.130;24.746;2023-05-12T10:46:27;100015.53;;;16.59;49.03
8320;BME280;4197;42.130;24.746;2023-05-12T10:48:58;100006.88;;;16.50;48.64
8320;BME280;4197;42.130;24.746;2023-05-12T10:51:27;99994.41;;;16.60;49.50
8320;BME280;4197;42.130;24.746;2023-05-12T10:53:57;100006.97;;;16.64;49.85
8320;BME280;4197;42.130;24.746;2023-05-12T10:56:28;100000.28;;;16.62;49.88
8320;BME280;4197;42.130;24.746;2023-05-12T10:59:10;100003.22;;;16.87;49.07
8320;BME280;4197;42.130;24.746;2023-05-12T11:01:54;100005.22;;;16.38;49.63
8320;BME280;4197;42.130;24.746;2023-05-12T11:04:38;100002.72;;;15.78;51.70
8320;BME280;4197;42.130;24.746;2023-05-12T11:07:12;99992.22;;;16.28;51.26
8320;BME280;4197;42.130;24.746;2023-05-12T11:09:43;99991.47;;;16.86;51.08
8320;BME280;4197;42.130;24.746;2023-05-12T11:12:15;99995.63;;;17.39;49.38
8320;BME280;4197;42.130;24.746;2023-05-12T11:14:46;100001.22;;;17.75;46.73
8320;BME280;4197;42.130;24.746;2023-05-12T11:17:15;99995.81;;;18.07;46.83
8320;BME280;4197;42.130;24.746;2023-05-12T11:19:45;100003.63;;;18.44;45.95
8320;BME280;4197;42.130;24.746;2023-05-12T11:22:16;99996.97;;;18.02;44.96
8320;BME280;4197;42.130;24.746;2023-05-12T11:24:46;99999.28;;;17.79;46.89
8320;BME280;4197;42.130;24.746;2023-05-12T11:27:19;99998.53;;;18.14;46.99
8320;BME280;4197;42.130;24.746;2023-05-12T11:29:56;99996.59;;;18.43;44.52
8320;BME280;4197;42.130;24.746;2023-05-12T11:32:26;99998.16;;;18.16;43.42
8320;BME280;4197;42.130;24.746;2023-05-12T11:34:55;99998.00;;;17.51;44.35
8320;BME280;4197;42.130;24.746;2023-05-12T11:37:35;99992.06;;;17.31;46.42
8320;BME280;4197;42.130;24.746;2023-05-12T11:40:19;99983.44;;;17.26;45.57
8320;BME280;4197;42.130;24.746;2023-05-12T11:42:49;99978.84;;;17.58;46.54
8320;BME280;4197;42.130;24.746;2023-05-12T11:45:25;99975.78;;;17.99;45.03
8320;BME280;4197;42.130;24.746;2023-05-12T11:48:04;99973.06;;;18.24;45.53
8320;BME280;4197;42.130;24.746;2023-05-12T11:50:36;99983.22;;;18.42;44.17
8320;BME280;4197;42.130;24.746;2023-05-12T11:53:12;99975.00;;;18.42;43.98
8320;BME280;4197;42.130;24.746;2023-05-12T11:55:58;99984.41;;;17.94;42.52
8320;BME280;4197;42.130;24.746;2023-05-12T11:58:27;99976.97;;;17.88;43.52
8320;BME280;4197;42.130;24.746;2023-05-12T12:01:08;99973.44;;;17.91;43.71
8320;BME280;4197;42.130;24.746;2023-05-12T12:03:44;99960.50;;;17.88;45.11
8320;BME280;4197;42.130;24.746;2023-05-12T12:06:14;99967.94;;;18.30;44.83
8320;BME280;4197;42.130;24.746;2023-05-12T12:08:50;99962.84;;;18.18;44.22
8320;BME280;4197;42.130;24.746;2023-05-12T12:11:18;99968.69;;;17.63;45.10
8320;BME280;4197;42.130;24.746;2023-05-12T12:13:47;99962.38;;;17.55;46.99
8320;BME280;4197;42.130;24.746;2023-05-12T12:16:19;99965.97;;;17.95;46.42
8320;BME280;4197;42.130;24.746;2023-05-12T12:18:48;99962.47;;;18.19;45.08
8320;BME280;4197;42.130;24.746;2023-05-12T12:21:16;99971.09;;;18.00;45.66
8320;BME280;4197;42.130;24.746;2023-05-12T12:23:45;99962.72;;;17.35;46.05
8320;BME280;4197;42.130;24.746;2023-05-12T12:26:18;99970.22;;;17.53;46.28
8320;BME280;4197;42.130;24.746;2023-05-12T12:28:47;99956.53;;;17.64;45.21
8320;BME280;4197;42.130;24.746;2023-05-12T12:31:16;99948.66;;;17.51;45.81
8320;BME280;4197;42.130;24.746;2023-05-12T12:33:45;99953.75;;;17.49;46.02
8320;BME280;4197;42.130;24.746;2023-05-12T12:36:16;99957.22;;;17.28;47.10
8320;BME280;4197;42.130;24.746;2023-05-12T12:38:45;99955.00;;;16.75;47.72
8320;BME280;4197;42.130;24.746;2023-05-12T12:41:14;99947.13;;;16.66;46.27
8320;BME280;4197;42.130;24.746;2023-05-12T12:43:42;99949.03;;;16.55;46.68
8320;BME280;4197;42.130;24.746;2023-05-12T12:46:10;99947.69;;;16.93;46.60
8320;BME280;4197;42.130;24.746;2023-05-12T12:48:38;99945.38;;;16.99;46.09
8320;BME280;4197;42.130;24.746;2023-05-12T12:51:08;99940.63;;;16.89;46.62
8320;BME280;4197;42.130;24.746;2023-05-12T12:53:36;99932.94;;;17.34;46.83
8320;BME280;4197;42.130;24.746;2023-05-12T12:56:05;99935.34;;;17.57;45.83
8320;BME280;4197;42.130;24.746;2023-05-12T12:58:33;99934.59;;;17.74;46.11
8320;BME280;4197;42.130;24.746;2023-05-12T13:01:02;99938.94;;;18.00;44.85
8320;BME280;4197;42.130;24.746;2023-05-12T13:03:30;99938.94;;;18.11;44.20
8320;BME280;4197;42.130;24.746;2023-05-12T13:05:58;99932.28;;;17.83;45.24
8320;BME280;4197;42.130;24.746;2023-05-12T13:08:28;99924.06;;;18.16;46.07
8320;BME280;4197;42.130;24.746;2023-05-12T13:10:56;99936.94;;;18.47;43.35
8320;BME280;4197;42.130;24.746;2023-05-12T13:13:26;99933.84;;;18.35;43.64